createdAt,value
2018-09-11T00:00:19.943Z,1.95
2018-09-11T00:02:51.819Z,2.15
2018-09-11T00:05:20.923Z,1.90
2018-09-11T00:07:52.707Z,1.77
2018-09-11T00:10:21.895Z,2.30
2018-09-11T00:12:55.433Z,1.95
2018-09-11T00:15:25.013Z,1.90
2018-09-11T00:17:58.162Z,1.98
2018-09-11T00:20:27.113Z,1.92
2018-09-11T00:22:59.058Z,2.25
2018-09-11T00:25:28.049Z,1.75
2018-09-11T00:28:00.887Z,2.00
2018-09-11T00:30:29.880Z,1.65
2018-09-11T00:33:01.662Z,2.10
2018-09-11T00:35:34.588Z,1.80
2018-09-11T00:38:07.099Z,1.77
2018-09-11T00:40:36.078Z,2.10
2018-09-11T00:43:08.030Z,2.20
2018-09-11T00:45:36.909Z,2.10
2018-09-11T00:48:08.842Z,1.87
2018-09-11T00:50:37.697Z,1.85
2018-09-11T00:53:09.761Z,1.90
2018-09-11T00:55:38.572Z,2.00
2018-09-11T00:58:10.698Z,2.10
2018-09-11T01:00:39.792Z,2.58
2018-09-11T01:03:13.291Z,1.60
2018-09-11T01:05:42.400Z,2.15
2018-09-11T01:08:15.028Z,2.22
2018-09-11T01:10:44.082Z,2.05
2018-09-11T01:13:15.952Z,1.75
2018-09-11T01:15:45.174Z,2.15
2018-09-11T01:18:17.792Z,2.50
2018-09-11T01:20:46.884Z,1.80
2018-09-11T01:23:20.553Z,1.90
2018-09-11T01:25:49.580Z,1.87
2018-09-11T01:28:22.220Z,2.02
2018-09-11T01:30:51.250Z,1.90
2018-09-11T01:33:23.937Z,2.00
2018-09-11T01:35:57.187Z,1.80
2018-09-11T01:38:30.272Z,2.00
2018-09-11T01:40:59.309Z,2.17
2018-09-11T01:43:32.740Z,1.80
2018-09-11T01:46:01.830Z,1.82
2018-09-11T01:48:33.887Z,2.00
2018-09-11T01:51:03.009Z,1.75
2018-09-11T01:53:35.735Z,2.30
2018-09-11T01:56:04.877Z,2.20
2018-09-11T01:58:38.349Z,1.87
2018-09-11T02:01:07.919Z,2.17
2018-09-11T02:03:40.118Z,1.80
2018-09-11T02:06:09.166Z,2.30
2018-09-11T02:08:42.231Z,2.00
2018-09-11T02:11:11.489Z,2.15
2018-09-11T02:13:43.710Z,2.10
2018-09-11T02:16:13.723Z,2.20
2018-09-11T02:18:47.410Z,2.20
2018-09-11T02:21:16.481Z,2.20
2018-09-11T02:23:49.091Z,2.22
2018-09-11T02:26:18.739Z,2.23
2018-09-11T02:28:50.964Z,1.70
2018-09-11T02:31:20.063Z,1.87
2018-09-11T02:33:52.667Z,2.10
2018-09-11T02:36:24.694Z,2.30
2018-09-11T02:38:57.219Z,2.30
2018-09-11T02:41:27.079Z,2.40
2018-09-11T02:44:03.952Z,2.30
2018-09-11T02:46:33.278Z,2.33
2018-09-11T02:49:06.134Z,2.17
2018-09-11T02:51:35.779Z,2.27
2018-09-11T02:54:08.029Z,2.00
2018-09-11T02:56:36.985Z,2.08
2018-09-11T02:59:08.918Z,2.17
2018-09-11T03:01:37.973Z,2.30
2018-09-11T03:04:11.553Z,2.25
2018-09-11T03:06:40.485Z,2.22
2018-09-11T03:09:13.294Z,2.00
2018-09-11T03:11:42.243Z,1.77
2018-09-11T03:14:23.773Z,5.33
2018-09-11T03:16:52.844Z,1.90
2018-09-11T03:19:25.111Z,1.90
2018-09-11T03:21:54.010Z,2.12
2018-09-11T03:24:26.829Z,2.17
2018-09-11T03:26:55.804Z,2.50
2018-09-11T03:29:27.718Z,1.98
2018-09-11T03:31:56.837Z,2.47
2018-09-11T03:34:30.448Z,2.10
2018-09-11T03:37:02.646Z,2.60
2018-09-11T03:39:35.212Z,2.70
2018-09-11T03:42:04.520Z,2.20
2018-09-11T03:44:36.712Z,1.87
2018-09-11T03:47:06.063Z,2.53
2018-09-11T03:49:39.354Z,2.10
2018-09-11T03:52:08.381Z,2.22
2018-09-11T03:54:40.334Z,2.22
2018-09-11T03:57:09.297Z,2.23
2018-09-11T03:59:41.086Z,1.80
2018-09-11T04:02:10.150Z,2.10
2018-09-11T04:04:41.952Z,1.90
2018-09-11T04:07:10.800Z,2.50
2018-09-11T04:09:43.022Z,2.10
2018-09-11T04:12:11.970Z,2.40
2018-09-11T04:14:43.741Z,1.85
2018-09-11T04:17:12.900Z,1.90
2018-09-11T04:19:45.589Z,2.10
2018-09-11T04:22:14.384Z,1.90
2018-09-11T04:24:47.396Z,2.70
2018-09-11T04:27:16.282Z,2.85
2018-09-11T04:29:48.244Z,2.10
2018-09-11T04:32:17.312Z,2.55
2018-09-11T04:34:49.048Z,2.00
2018-09-11T04:37:22.067Z,2.30
2018-09-11T04:39:55.387Z,2.87
2018-09-11T04:42:24.457Z,2.55
2018-09-11T04:44:56.429Z,2.35
2018-09-11T04:47:25.539Z,2.67
2018-09-11T04:49:58.830Z,2.42
2018-09-11T04:52:28.072Z,2.80
2018-09-11T04:55:00.806Z,2.42
2018-09-11T04:57:29.820Z,2.43
2018-09-11T05:00:02.584Z,2.58
2018-09-11T05:02:31.644Z,2.87
2018-09-11T05:05:04.314Z,2.40
2018-09-11T05:07:33.420Z,2.58
2018-09-11T05:10:10.287Z,2.65
2018-09-11T05:12:43.493Z,3.17
2018-09-11T05:15:16.091Z,2.90
2018-09-11T05:17:45.182Z,2.53
2018-09-11T05:20:18.187Z,2.40
2018-09-11T05:22:47.481Z,2.35
2018-09-11T05:25:20.581Z,2.40
2018-09-11T05:27:49.756Z,2.17
2018-09-11T05:30:22.276Z,2.75
2018-09-11T05:32:51.360Z,1.50
2018-09-11T05:35:23.303Z,2.10
2018-09-11T05:38:07.000Z,1.77
2018-09-11T05:40:53.837Z,2.00
2018-09-11T05:43:38.144Z,2.98
2018-09-11T05:46:29.767Z,4.10
2018-09-11T05:49:14.341Z,2.22
2018-09-11T05:52:03.136Z,2.40
2018-09-11T05:54:47.044Z,2.00
2018-09-11T05:57:33.893Z,2.55
2018-09-11T06:00:18.193Z,2.70
2018-09-11T06:03:07.391Z,2.37
2018-09-11T06:05:51.342Z,2.12
2018-09-11T06:08:38.178Z,2.07
2018-09-11T06:11:22.320Z,2.27
2018-09-11T06:14:10.044Z,2.40
2018-09-11T06:16:54.118Z,2.62
2018-09-11T06:19:42.549Z,2.37
2018-09-11T06:22:26.693Z,2.47
2018-09-11T06:25:13.384Z,2.40
2018-09-11T06:27:56.934Z,2.27
2018-09-11T06:30:44.968Z,2.10
2018-09-11T06:33:28.605Z,2.17
2018-09-11T06:36:16.655Z,2.20
2018-09-11T06:39:00.805Z,2.00
2018-09-11T06:41:48.351Z,2.00
2018-09-11T06:44:31.956Z,2.20
2018-09-11T06:47:19.177Z,2.02
2018-09-11T06:50:03.444Z,2.00
2018-09-11T06:52:50.759Z,2.53
2018-09-11T06:55:34.833Z,2.10
2018-09-11T06:58:23.447Z,2.00
2018-09-11T07:01:07.260Z,2.35
2018-09-11T07:03:54.156Z,2.10
2018-09-11T07:06:38.204Z,2.20
2018-09-11T07:09:25.964Z,2.92
2018-09-11T07:12:09.997Z,2.10
2018-09-11T07:14:58.565Z,1.87
2018-09-11T07:17:42.391Z,1.90
2018-09-11T07:20:29.359Z,2.30
2018-09-11T07:23:13.207Z,2.17
2018-09-11T07:26:00.998Z,2.12
2018-09-11T07:28:45.005Z,1.57
2018-09-11T07:31:37.204Z,2.65
2018-09-11T07:34:21.351Z,2.00
2018-09-11T07:37:08.840Z,1.87
2018-09-11T07:39:52.403Z,1.90
2018-09-11T07:42:40.646Z,1.90
2018-09-11T07:45:24.826Z,1.90
2018-09-11T07:48:12.251Z,1.97
2018-09-11T07:50:56.366Z,1.85
2018-09-11T07:53:43.074Z,1.90
2018-09-11T07:56:26.529Z,2.00
2018-09-11T07:59:13.785Z,2.33
2018-09-11T08:01:57.607Z,2.00
2018-09-11T08:04:45.529Z,1.90
2018-09-11T08:08:01.808Z,2.30
2018-09-11T08:10:48.986Z,1.90
2018-09-11T08:13:33.128Z,2.20
2018-09-11T08:16:21.520Z,1.75
2018-09-11T08:19:05.771Z,1.80
2018-09-11T08:21:53.150Z,1.85
2018-09-11T08:24:37.893Z,1.85
2018-09-11T08:27:24.977Z,1.90
2018-09-11T08:30:08.812Z,1.92
2018-09-11T08:32:56.700Z,1.80
2018-09-11T08:35:40.069Z,1.50
2018-09-11T08:38:28.244Z,1.50
2018-09-11T08:41:12.378Z,1.50
2018-09-11T08:43:59.005Z,1.50
2018-09-11T08:46:43.086Z,1.47
2018-09-11T08:49:29.882Z,1.57
2018-09-11T08:52:13.581Z,1.82
2018-09-11T08:55:01.611Z,1.70
2018-09-11T08:57:44.958Z,1.47
2018-09-11T09:00:31.425Z,1.77
2018-09-11T09:03:15.352Z,1.50
2018-09-11T09:06:03.095Z,1.30
2018-09-11T09:08:46.649Z,1.40
2018-09-11T09:11:33.012Z,1.37
2018-09-11T09:14:16.446Z,1.22
2018-09-11T09:17:04.717Z,1.50
2018-09-11T09:19:49.968Z,1.30
2018-09-11T09:22:36.432Z,1.70
2018-09-11T09:25:20.738Z,1.32
2018-09-11T09:28:07.180Z,1.37
2018-09-11T09:30:51.274Z,1.20
2018-09-11T09:33:37.976Z,1.03
2018-09-11T09:36:23.122Z,1.20
2018-09-11T09:39:11.565Z,1.82
2018-09-11T09:41:55.516Z,1.42
2018-09-11T09:44:43.242Z,1.60
2018-09-11T09:47:27.345Z,1.40
2018-09-11T09:50:15.962Z,1.60
2018-09-11T09:53:00.086Z,1.82
2018-09-11T09:55:48.199Z,1.70
2018-09-11T09:58:31.923Z,1.35
2018-09-11T10:01:24.620Z,1.40
2018-09-11T10:04:08.942Z,1.40
2018-09-11T10:06:57.352Z,1.40
2018-09-11T10:09:40.856Z,1.67
2018-09-11T10:12:27.994Z,1.25
2018-09-11T10:15:12.109Z,1.57
2018-09-11T10:17:59.805Z,1.57
2018-09-11T10:20:44.320Z,1.95
2018-09-11T10:23:31.693Z,1.57
2018-09-11T10:26:15.605Z,1.45
2018-09-11T10:29:08.053Z,1.45
2018-09-11T10:31:53.979Z,1.62
2018-09-11T10:34:48.326Z,1.60
2018-09-11T10:37:36.139Z,1.60
2018-09-11T10:40:09.198Z,1.40
2018-09-11T10:42:38.448Z,1.92
2018-09-11T10:45:11.007Z,1.60
2018-09-11T10:47:40.075Z,1.50
2018-09-11T10:50:13.668Z,1.33
2018-09-11T10:52:43.281Z,2.27
2018-09-11T10:55:15.416Z,1.75
2018-09-11T10:57:45.237Z,1.77
2018-09-11T11:00:17.338Z,1.60
2018-09-11T11:02:47.889Z,2.20
2018-09-11T11:05:22.958Z,1.67
2018-09-11T11:08:22.788Z,1.60
2018-09-11T11:10:55.273Z,1.55
2018-09-11T11:13:27.313Z,1.82
2018-09-11T11:16:00.685Z,1.40
2018-09-11T11:18:29.950Z,1.65
2018-09-11T11:21:02.836Z,1.40
2018-09-11T11:23:31.992Z,1.60
2018-09-11T11:26:04.357Z,1.30
2018-09-11T11:28:33.529Z,1.25
2018-09-11T11:31:06.255Z,1.15
2018-09-11T11:33:35.509Z,1.57
2018-09-11T11:36:09.631Z,1.40
2018-09-11T11:38:41.840Z,1.40
2018-09-11T11:41:14.205Z,1.42
2018-09-11T11:43:43.523Z,1.60
2018-09-11T11:46:16.906Z,1.57
2018-09-11T11:48:46.513Z,1.50
2018-09-11T11:51:18.670Z,1.57
2018-09-11T11:53:47.874Z,1.42
2018-09-11T11:56:21.075Z,1.67
2018-09-11T11:58:50.276Z,1.30
2018-09-11T12:01:22.236Z,1.20
2018-09-11T12:03:52.463Z,1.40
2018-09-11T12:06:25.901Z,1.30
2018-09-11T12:08:54.957Z,1.45
2018-09-11T12:11:27.520Z,1.45
2018-09-11T12:13:56.542Z,1.57
2018-09-11T12:16:29.408Z,1.50
2018-09-11T12:18:58.748Z,1.60
2018-09-11T12:21:31.130Z,1.30
2018-09-11T12:24:00.699Z,1.40
2018-09-11T12:26:34.981Z,1.40
2018-09-11T12:29:04.109Z,1.17
2018-09-11T12:31:36.528Z,1.52
2018-09-11T12:34:18.484Z,1.47
2018-09-11T12:36:52.909Z,1.22
2018-09-11T12:39:25.650Z,1.60
2018-09-11T12:41:58.322Z,1.50
2018-09-11T12:44:27.574Z,1.10
2018-09-11T12:47:05.421Z,1.20
2018-09-11T12:49:38.995Z,1.65
2018-09-11T12:52:13.523Z,1.35
2018-09-11T12:54:42.906Z,1.40
2018-09-11T12:57:16.347Z,1.40
2018-09-11T12:59:45.531Z,1.10
2018-09-11T13:02:19.300Z,1.67
2018-09-11T13:04:48.351Z,1.25
2018-09-11T13:07:21.627Z,1.15
2018-09-11T13:09:50.757Z,1.32
2018-09-11T13:12:23.683Z,1.30
2018-09-11T13:14:52.764Z,1.10
2018-09-11T13:17:25.187Z,1.25
2018-09-11T13:19:54.726Z,1.47
2018-09-11T13:22:28.007Z,1.30
2018-09-11T13:24:57.125Z,1.40
2018-09-11T13:27:29.706Z,1.20
2018-09-11T13:29:58.899Z,1.30
2018-09-11T13:32:31.471Z,0.85
2018-09-11T13:35:00.678Z,1.17
2018-09-11T13:37:33.399Z,1.22
2018-09-11T13:40:14.750Z,1.62
2018-09-11T13:42:47.725Z,1.42
2018-09-11T13:45:16.872Z,1.47
2018-09-11T13:47:51.551Z,1.40
2018-09-11T13:50:21.241Z,1.40
2018-09-11T13:52:55.068Z,1.30
2018-09-11T13:55:25.377Z,1.50
2018-09-11T13:58:05.104Z,1.20
2018-09-11T14:00:34.140Z,1.00
2018-09-11T14:03:07.721Z,1.50
2018-09-11T14:05:36.892Z,1.40
2018-09-11T14:08:10.660Z,1.35
2018-09-11T14:10:45.987Z,1.50
2018-09-11T14:13:18.598Z,1.80
2018-09-11T14:15:48.903Z,1.60
2018-09-11T14:18:22.061Z,1.20
2018-09-11T14:20:50.934Z,1.20
2018-09-11T14:23:24.646Z,1.53
2018-09-11T14:26:04.458Z,1.53
2018-09-11T14:28:37.432Z,1.70
2018-09-11T14:31:19.253Z,1.40
2018-09-11T14:33:53.808Z,1.40
2018-09-11T14:36:29.987Z,1.50
2018-09-11T14:39:12.862Z,1.22
2018-09-11T14:41:44.812Z,1.20
2018-09-11T14:44:17.988Z,1.52
2018-09-11T14:46:46.895Z,1.12
2018-09-11T14:49:19.706Z,1.07
2018-09-11T14:51:49.919Z,1.20
2018-09-11T14:54:22.452Z,2.08
2018-09-11T14:56:51.393Z,1.00
2018-09-11T14:59:23.388Z,1.00
2018-09-11T15:01:52.237Z,1.02
2018-09-11T15:04:24.240Z,1.20
2018-09-11T15:06:54.028Z,1.60
2018-09-11T15:09:26.980Z,1.10
2018-09-11T15:11:56.961Z,1.50
2018-09-11T15:14:28.641Z,1.60
2018-09-11T15:16:58.153Z,1.60
2018-09-11T15:19:30.575Z,1.50
2018-09-11T15:22:00.124Z,1.65
2018-09-11T15:24:32.642Z,1.57
2018-09-11T15:27:01.621Z,1.60
2018-09-11T15:29:35.170Z,0.72
2018-09-11T15:32:04.409Z,1.30
2018-09-11T15:34:37.779Z,1.02
2018-09-11T15:37:07.159Z,1.37
2018-09-11T15:39:41.026Z,1.60
2018-09-11T15:42:14.532Z,1.30
2018-09-11T15:44:46.585Z,1.17
2018-09-11T15:47:15.345Z,1.20
2018-09-11T15:49:47.533Z,1.00
2018-09-11T15:52:16.646Z,1.05
2018-09-11T15:54:49.370Z,1.00
2018-09-11T15:57:18.155Z,1.10
2018-09-11T15:59:50.136Z,0.95
2018-09-11T16:02:19.800Z,1.83
2018-09-11T16:04:52.813Z,0.87
2018-09-11T16:07:21.393Z,0.88
2018-09-11T16:09:54.590Z,0.95
2018-09-11T16:12:23.453Z,0.90
2018-09-11T16:14:55.529Z,1.07
2018-09-11T16:17:24.249Z,0.90
2018-09-11T16:19:56.429Z,1.10
2018-09-11T16:22:25.019Z,0.80
2018-09-11T16:25:01.259Z,0.85
2018-09-11T16:27:30.013Z,0.90
2018-09-11T16:30:06.411Z,0.80
2018-09-11T16:32:34.997Z,0.90
2018-09-11T16:35:07.230Z,0.90
2018-09-11T16:37:36.784Z,0.80
2018-09-11T16:40:09.819Z,0.87
2018-09-11T16:42:41.553Z,0.90
2018-09-11T16:45:13.515Z,0.90
2018-09-11T16:47:42.172Z,1.00
2018-09-11T16:50:14.405Z,0.80
2018-09-11T16:52:42.900Z,0.90
2018-09-11T16:55:11.453Z,0.90
2018-09-11T16:57:43.809Z,1.00
2018-09-11T17:00:12.496Z,0.98
2018-09-11T17:02:45.577Z,0.90
2018-09-11T17:05:14.256Z,1.10
2018-09-11T17:07:46.533Z,1.00
2018-09-11T17:10:15.464Z,1.20
2018-09-11T17:12:49.188Z,1.00
2018-09-11T17:15:17.802Z,1.37
2018-09-11T17:17:51.072Z,1.20
2018-09-11T17:20:19.819Z,1.40
2018-09-11T17:22:53.326Z,1.40
2018-09-11T17:25:21.917Z,1.50
2018-09-11T17:27:53.596Z,1.22
2018-09-11T17:30:22.234Z,1.37
2018-09-11T17:32:54.475Z,1.10
2018-09-11T17:35:23.086Z,1.00
2018-09-11T17:37:55.421Z,1.00
2018-09-11T17:40:24.106Z,1.17
2018-09-11T17:43:00.047Z,1.20
2018-09-11T17:45:28.875Z,1.40
2018-09-11T17:48:02.204Z,1.12
2018-09-11T17:50:32.200Z,1.10
2018-09-11T17:53:04.442Z,1.30
2018-09-11T17:55:33.089Z,1.30
2018-09-11T17:58:06.223Z,1.20
2018-09-11T18:00:34.809Z,1.17
2018-09-11T18:03:08.022Z,1.20
2018-09-11T18:05:36.704Z,1.22
2018-09-11T18:08:09.694Z,1.07
2018-09-11T18:10:39.229Z,1.40
2018-09-11T18:13:14.242Z,1.12
2018-09-11T18:15:43.752Z,1.32
2018-09-11T18:18:16.912Z,1.40
2018-09-11T18:20:46.676Z,1.50
2018-09-11T18:23:19.664Z,1.30
2018-09-11T18:25:48.891Z,1.70
2018-09-11T18:28:21.473Z,1.45
2018-09-11T18:30:50.212Z,1.50
2018-09-11T18:33:22.325Z,1.57
2018-09-11T18:35:51.102Z,1.42
2018-09-11T18:38:24.176Z,1.40
2018-09-11T18:40:52.890Z,1.50
2018-09-11T18:43:27.617Z,1.40
2018-09-11T18:45:56.218Z,1.30
2018-09-11T18:48:28.546Z,1.45
2018-09-11T18:50:57.471Z,1.60
2018-09-11T18:53:33.063Z,1.80
2018-09-11T18:56:01.771Z,1.87
2018-09-11T18:58:34.980Z,1.60
2018-09-11T19:01:03.724Z,1.50
2018-09-11T19:03:35.753Z,1.70
2018-09-11T19:06:04.421Z,1.57
2018-09-11T19:08:36.586Z,1.72
2018-09-11T19:11:05.245Z,1.35
2018-09-11T19:13:37.470Z,1.65
2018-09-11T19:16:06.192Z,1.80
2018-09-11T19:18:38.426Z,1.50
2018-09-11T19:21:07.219Z,1.47
2018-09-11T19:23:39.173Z,1.40
2018-09-11T19:26:07.902Z,1.57
2018-09-11T19:28:41.141Z,1.77
2018-09-11T19:31:09.924Z,1.90
2018-09-11T19:33:42.903Z,1.80
2018-09-11T19:36:11.907Z,2.10
2018-09-11T19:38:48.169Z,1.65
2018-09-11T19:41:17.286Z,2.02
2018-09-11T19:43:52.807Z,1.53
2018-09-11T19:46:21.413Z,1.90
2018-09-11T19:48:53.595Z,2.25
2018-09-11T19:51:24.090Z,1.55
2018-09-11T19:53:56.361Z,1.72
2018-09-11T19:56:24.959Z,2.00
2018-09-11T19:58:58.137Z,1.75
2018-09-11T20:01:26.695Z,1.80
2018-09-11T20:03:59.806Z,1.60
2018-09-11T20:06:28.513Z,1.80
2018-09-11T20:09:00.682Z,1.70
2018-09-11T20:11:29.506Z,1.70
2018-09-11T20:14:01.621Z,2.02
2018-09-11T20:16:30.207Z,1.50
2018-09-11T20:18:58.774Z,1.60
2018-09-11T20:21:31.153Z,1.60
2018-09-11T20:23:59.779Z,1.77
2018-09-11T20:26:32.960Z,1.57
2018-09-11T20:29:01.636Z,1.62
2018-09-11T20:31:33.735Z,1.70
2018-09-11T20:37:36.339Z,1.77
2018-09-11T20:40:05.082Z,1.75
2018-09-11T20:42:38.125Z,1.60
2018-09-11T20:45:09.955Z,1.90
2018-09-11T20:47:41.767Z,1.60
2018-09-11T20:50:11.325Z,1.60
2018-09-11T20:52:44.424Z,1.60
2018-09-11T20:55:13.458Z,1.70
2018-09-11T20:57:45.357Z,1.55
2018-09-11T21:00:14.160Z,1.82
2018-09-11T21:02:47.905Z,1.62
2018-09-11T21:05:16.670Z,1.82
2018-09-11T21:07:48.786Z,1.70
2018-09-11T21:10:17.550Z,1.60
2018-09-11T21:12:50.664Z,1.70
2018-09-11T21:15:19.352Z,1.52
2018-09-11T21:18:07.762Z,1.60
2018-09-11T21:20:36.429Z,1.57
2018-09-11T21:23:10.112Z,1.60
2018-09-11T21:25:38.853Z,1.60
2018-09-11T21:28:10.530Z,1.50
2018-09-11T21:30:39.116Z,1.40
2018-09-11T21:33:11.367Z,1.42
2018-09-11T21:35:40.086Z,1.80
2018-09-11T21:38:13.133Z,1.35
2018-09-11T21:40:42.017Z,1.62
2018-09-11T21:43:15.000Z,1.50
2018-09-11T21:45:46.760Z,1.45
2018-09-11T21:48:18.561Z,1.80
2018-09-11T21:50:47.943Z,1.67
2018-09-11T21:53:19.420Z,2.00
2018-09-11T21:55:48.142Z,1.47
2018-09-11T21:58:21.225Z,1.47
2018-09-11T22:00:55.342Z,1.40
2018-09-11T22:03:28.434Z,1.55
2018-09-11T22:05:57.359Z,1.50
2018-09-11T22:08:30.192Z,1.50
2018-09-11T22:10:59.780Z,1.30
2018-09-11T22:13:32.844Z,1.52
2018-09-11T22:16:01.460Z,1.30
2018-09-11T22:18:33.732Z,1.37
2018-09-11T22:21:02.341Z,1.20
2018-09-11T22:23:34.613Z,1.37
2018-09-11T22:26:03.348Z,1.50
2018-09-11T22:28:35.483Z,1.27
2018-09-11T22:31:04.114Z,1.47
2018-09-11T22:33:36.342Z,1.12
2018-09-11T22:36:05.740Z,1.20
2018-09-11T22:38:38.134Z,1.37
2018-09-11T22:41:06.770Z,1.20
2018-09-11T22:43:39.898Z,1.50
2018-09-11T22:46:11.864Z,1.30
2018-09-11T22:48:43.608Z,1.43
2018-09-11T22:51:12.271Z,1.30
2018-09-11T22:53:44.469Z,1.50
2018-09-11T22:56:15.547Z,1.52
2018-09-11T22:58:48.113Z,1.50
2018-09-11T23:01:16.768Z,1.47
2018-09-11T23:03:52.539Z,1.50
2018-09-11T23:06:21.309Z,1.47
2018-09-11T23:08:53.400Z,1.30
2018-09-11T23:11:22.212Z,1.27
2018-09-11T23:13:55.224Z,1.20
2018-09-11T23:16:23.853Z,1.40
2018-09-11T23:18:56.968Z,1.40
2018-09-11T23:21:26.320Z,1.25
2018-09-11T23:23:58.732Z,1.23
2018-09-11T23:26:27.348Z,1.30
2018-09-11T23:28:59.678Z,1.30
2018-09-11T23:31:28.338Z,1.50
2018-09-11T23:34:00.483Z,1.30
2018-09-11T23:36:29.113Z,1.30
2018-09-11T23:39:01.426Z,1.30
2018-09-11T23:41:30.042Z,1.30
2018-09-11T23:44:03.325Z,1.40
2018-09-11T23:46:34.896Z,1.27
2018-09-11T23:49:06.738Z,1.27
2018-09-11T23:51:35.337Z,1.20
2018-09-11T23:54:07.624Z,1.30
2018-09-11T23:56:36.393Z,1.35
2018-09-11T23:59:09.522Z,1.40
